createdAt,value
2022-08-09T00:01:55.346Z,1.17
2022-08-09T00:04:25.171Z,1.25
2022-08-09T00:07:01.108Z,1.00
2022-08-09T00:09:29.136Z,0.80
2022-08-09T00:12:03.649Z,1.00
2022-08-09T00:14:38.334Z,0.95
2022-08-09T00:19:31.837Z,0.77
2022-08-09T00:22:00.783Z,1.00
2022-08-09T00:24:32.088Z,0.60
2022-08-09T00:26:59.808Z,0.85
2022-08-09T00:30:10.050Z,0.80
2022-08-09T00:32:13.989Z,0.98
2022-08-09T00:34:52.947Z,0.77
2022-08-09T00:37:19.596Z,0.95
2022-08-09T00:40:09.356Z,1.00
2022-08-09T00:44:26.088Z,0.80
2022-08-09T00:45:20.173Z,0.73
2022-08-09T00:47:47.531Z,0.60
2022-08-09T00:50:15.145Z,0.70
2022-08-09T00:52:42.167Z,0.60
2022-08-09T00:55:09.150Z,1.02
2022-08-09T00:57:43.510Z,0.60
2022-08-09T01:00:21.079Z,1.02
2022-08-09T01:02:50.297Z,0.80
2022-08-09T01:05:21.800Z,0.65
2022-08-09T01:08:05.181Z,0.70
2022-08-09T01:10:32.137Z,0.70
2022-08-09T01:13:04.426Z,0.80
2022-08-09T01:15:40.943Z,0.50
2022-08-09T01:18:30.132Z,0.80
2022-08-09T01:20:58.005Z,0.70
2022-08-09T01:24:03.632Z,0.90
2022-08-09T01:26:30.472Z,1.00
2022-08-09T01:28:58.294Z,0.70
2022-08-09T01:32:32.675Z,0.60
2022-08-09T01:34:15.168Z,0.70
2022-08-09T01:36:43.631Z,0.90
2022-08-09T01:39:10.798Z,0.57
2022-08-09T01:41:37.806Z,0.80
2022-08-09T01:44:23.156Z,0.90
2022-08-09T01:46:50.836Z,0.60
2022-08-09T01:49:20.990Z,0.68
2022-08-09T01:51:55.857Z,0.70
2022-08-09T01:54:41.107Z,0.90
2022-08-09T01:57:14.799Z,0.45
2022-08-09T01:59:52.129Z,1.05
2022-08-09T02:02:20.491Z,0.60
2022-08-09T02:04:48.956Z,0.52
2022-08-09T02:08:36.089Z,1.05
2022-08-09T02:10:09.375Z,0.68
2022-08-09T02:12:37.455Z,1.00
2022-08-09T02:15:07.686Z,0.50
2022-08-09T02:18:00.799Z,1.02
2022-08-09T02:20:26.202Z,0.73
2022-08-09T02:22:56.836Z,0.80
2022-08-09T02:25:25.500Z,1.17
2022-08-09T02:28:05.231Z,0.90
2022-08-09T02:30:33.917Z,0.70
2022-08-09T02:33:01.352Z,0.80
2022-08-09T02:36:01.392Z,0.73
2022-08-09T02:38:22.183Z,0.73
2022-08-09T02:41:03.612Z,0.70
2022-08-09T02:45:58.256Z,1.00
2022-08-09T02:48:30.477Z,0.80
2022-08-09T02:50:59.067Z,0.80
2022-08-09T02:53:31.811Z,0.80
2022-08-09T02:56:02.253Z,0.70
2022-08-09T02:58:36.915Z,0.82
2022-08-09T03:01:06.074Z,0.68
2022-08-09T03:03:37.283Z,1.27
2022-08-09T03:06:21.879Z,0.70
2022-08-09T03:08:49.411Z,0.60
2022-08-09T03:11:30.132Z,1.00
2022-08-09T03:14:04.519Z,1.40
2022-08-09T03:16:32.778Z,0.60
2022-08-09T03:19:01.823Z,0.75
2022-08-09T03:21:28.855Z,1.08
2022-08-09T03:24:05.013Z,0.70
2022-08-09T03:26:33.028Z,1.17
2022-08-09T03:28:59.822Z,1.00
2022-08-09T03:31:27.563Z,0.90
2022-08-09T03:33:56.482Z,0.90
2022-08-09T03:36:27.397Z,0.70
2022-08-09T03:38:55.135Z,0.60
2022-08-09T03:41:42.965Z,0.70
2022-08-09T03:44:09.880Z,0.90
2022-08-09T03:46:39.083Z,0.82
2022-08-09T03:49:08.813Z,1.00
2022-08-09T03:51:57.793Z,0.98
2022-08-09T03:54:29.172Z,0.77
2022-08-09T03:56:57.913Z,0.60
2022-08-09T03:59:27.470Z,0.90
2022-08-09T04:02:10.081Z,1.00
2022-08-09T04:04:38.969Z,0.68
2022-08-09T04:07:06.253Z,0.93
2022-08-09T04:09:48.004Z,0.70
2022-08-09T04:12:30.921Z,1.40
2022-08-09T04:15:01.679Z,0.80
2022-08-09T04:17:29.678Z,0.70
2022-08-09T04:19:56.601Z,1.20
2022-08-09T04:22:23.265Z,0.80
2022-08-09T04:24:50.277Z,0.77
2022-08-09T04:27:17.339Z,0.80
2022-08-09T04:29:50.147Z,1.08
2022-08-09T04:32:16.981Z,0.77
2022-08-09T04:34:54.111Z,0.90
2022-08-09T04:37:20.994Z,0.85
2022-08-09T04:39:49.439Z,0.80
2022-08-09T04:42:16.185Z,1.05
2022-08-09T04:44:49.262Z,0.82
2022-08-09T04:47:16.069Z,0.80
2022-08-09T04:49:53.449Z,1.38
2022-08-09T04:52:26.763Z,0.90
2022-08-09T04:54:54.435Z,1.02
2022-08-09T04:57:23.859Z,0.93
2022-08-09T04:59:50.873Z,1.10
2022-08-09T05:02:17.574Z,1.23
2022-08-09T05:04:45.311Z,0.93
2022-08-09T05:07:19.272Z,0.80
2022-08-09T05:09:49.660Z,1.10
2022-08-09T05:12:16.989Z,0.90
2022-08-09T05:14:43.507Z,0.85
2022-08-09T05:17:15.451Z,1.20
2022-08-09T05:19:58.267Z,1.02
2022-08-09T05:22:35.863Z,0.98
2022-08-09T05:25:12.321Z,1.38
2022-08-09T05:27:45.567Z,0.82
2022-08-09T05:30:14.717Z,1.00
2022-08-09T05:32:43.534Z,0.88
2022-08-09T05:35:11.372Z,1.20
2022-08-09T05:37:47.669Z,0.95
2022-08-09T05:40:16.992Z,0.93
2022-08-09T05:42:45.238Z,0.85
2022-08-09T05:45:14.503Z,1.02
2022-08-09T05:47:51.841Z,1.08
2022-08-09T05:50:32.343Z,1.00
2022-08-09T05:53:06.350Z,1.00
2022-08-09T05:55:38.455Z,1.58
2022-08-09T05:58:05.006Z,0.93
2022-08-09T06:00:33.872Z,1.20
2022-08-09T06:03:01.505Z,0.82
2022-08-09T06:05:49.758Z,1.00
2022-08-09T06:08:19.743Z,1.20
2022-08-09T06:10:51.556Z,1.15
2022-08-09T06:13:20.208Z,1.20
2022-08-09T06:15:47.757Z,1.17
2022-08-09T06:18:18.441Z,0.90
2022-08-09T06:20:49.857Z,1.45
2022-08-09T06:23:21.034Z,0.95
2022-08-09T06:25:48.812Z,1.02
2022-08-09T06:28:15.518Z,1.02
2022-08-09T06:30:43.392Z,0.98
2022-08-09T06:33:30.124Z,1.00
2022-08-09T06:35:58.436Z,0.70
2022-08-09T06:38:32.665Z,0.60
2022-08-09T06:41:04.609Z,0.63
2022-08-09T06:43:45.154Z,0.80
2022-08-09T06:46:11.748Z,0.60
2022-08-09T06:49:00.204Z,0.60
2022-08-09T06:51:27.142Z,0.40
2022-08-09T06:53:54.771Z,0.30
2022-08-09T06:56:21.346Z,0.35
2022-08-09T07:00:51.082Z,0.30
2022-08-09T07:01:58.083Z,0.40
2022-08-09T07:04:27.107Z,0.50
2022-08-09T07:06:59.955Z,0.30
2022-08-09T07:09:55.923Z,0.30
2022-08-09T07:12:18.012Z,0.20
2022-08-09T07:14:45.612Z,0.30
2022-08-09T07:17:17.471Z,0.30
2022-08-09T07:19:43.978Z,0.25
2022-08-09T07:22:14.885Z,0.20
2022-08-09T07:24:49.189Z,0.30
2022-08-09T07:27:26.826Z,0.40
2022-08-09T07:30:01.404Z,0.30
2022-08-09T07:32:32.082Z,0.22
2022-08-09T07:35:02.866Z,0.30
2022-08-09T07:37:43.223Z,0.30
2022-08-09T07:40:13.009Z,0.30
2022-08-09T07:42:59.145Z,0.20
2022-08-09T07:45:40.300Z,0.20
2022-08-09T07:48:28.898Z,0.38
2022-08-09T07:51:09.949Z,0.30
2022-08-09T07:54:04.916Z,0.20
2022-08-09T07:56:34.977Z,0.40
2022-08-09T07:59:12.668Z,0.25
2022-08-09T08:01:53.278Z,0.40
2022-08-09T08:04:20.255Z,0.20
2022-08-09T08:07:00.417Z,0.20
2022-08-09T08:09:46.686Z,0.20
2022-08-09T08:12:37.206Z,0.10
2022-08-09T08:15:07.599Z,0.22
2022-08-09T08:17:53.211Z,0.25
2022-08-09T08:20:28.621Z,0.20
2022-08-09T08:23:01.276Z,0.30
2022-08-09T08:25:40.058Z,0.10
2022-08-09T08:28:14.377Z,0.20
2022-08-09T08:30:42.159Z,0.40
2022-08-09T08:33:11.900Z,0.20
2022-08-09T08:35:59.734Z,0.20
2022-08-09T08:38:25.531Z,0.30
2022-08-09T08:40:55.714Z,0.17
2022-08-09T08:43:23.827Z,0.28
2022-08-09T08:46:31.585Z,0.22
2022-08-09T08:48:51.897Z,0.63
2022-08-09T08:51:21.468Z,0.10
2022-08-09T08:54:03.365Z,0.40
2022-08-09T08:56:33.041Z,0.17
2022-08-09T08:59:01.215Z,0.60
2022-08-09T09:01:44.914Z,0.25
2022-08-09T09:04:26.773Z,0.32
2022-08-09T09:09:41.259Z,0.50
2022-08-09T09:12:12.154Z,0.63
2022-08-09T09:14:44.367Z,0.70
2022-08-09T09:17:11.459Z,0.70
2022-08-09T09:19:43.305Z,0.75
2022-08-09T09:22:15.834Z,0.68
2022-08-09T09:24:43.470Z,0.60
2022-08-09T09:27:22.054Z,0.50
2022-08-09T09:30:16.541Z,0.70
2022-08-09T09:33:16.412Z,0.45
2022-08-09T09:36:02.549Z,0.40
2022-08-09T09:38:42.781Z,0.50
2022-08-09T09:41:09.944Z,0.50
2022-08-09T09:43:41.444Z,0.30
2022-08-09T09:46:50.520Z,0.22
2022-08-09T09:49:23.499Z,0.32
2022-08-09T09:52:07.117Z,0.17
2022-08-09T09:55:00.935Z,0.20
2022-08-09T09:58:02.312Z,0.57
2022-08-09T10:00:26.817Z,0.40
2022-08-09T10:02:53.515Z,0.30
2022-08-09T10:05:27.183Z,0.28
2022-08-09T10:08:26.191Z,0.30
2022-08-09T10:10:55.584Z,0.30
2022-08-09T10:13:23.154Z,0.25
2022-08-09T10:16:58.313Z,0.40
2022-08-09T10:18:56.161Z,0.30
2022-08-09T10:21:26.851Z,0.40
2022-08-09T10:23:54.421Z,0.25
2022-08-09T10:26:22.083Z,0.40
2022-08-09T10:29:21.450Z,0.30
2022-08-09T10:32:35.714Z,0.70
2022-08-09T10:34:33.163Z,0.40
2022-08-09T10:37:00.928Z,0.40
2022-08-09T10:39:28.711Z,0.38
2022-08-09T10:41:55.391Z,0.20
2022-08-09T10:44:22.963Z,0.38
2022-08-09T10:47:20.427Z,0.57
2022-08-09T10:50:04.355Z,0.57
2022-08-09T10:52:35.329Z,0.40
2022-08-09T10:55:24.050Z,0.32
2022-08-09T10:57:51.844Z,0.50
2022-08-09T11:00:31.265Z,0.52
2022-08-09T11:03:15.335Z,0.57
2022-08-09T11:06:04.403Z,0.40
2022-08-09T11:08:47.982Z,0.50
2022-08-09T11:11:20.406Z,0.68
2022-08-09T11:13:53.693Z,0.57
2022-08-09T11:16:34.792Z,0.63
2022-08-09T11:19:09.423Z,0.32
2022-08-09T11:21:57.417Z,0.40
2022-08-09T11:24:51.147Z,0.50
2022-08-09T11:28:03.612Z,0.50
2022-08-09T11:30:32.299Z,0.20
2022-08-09T11:33:06.563Z,0.47
2022-08-09T11:35:51.997Z,0.40
2022-08-09T11:38:28.535Z,0.38
2022-08-09T11:41:22.621Z,0.35
2022-08-09T11:43:49.514Z,0.40
2022-08-09T11:46:26.733Z,0.47
2022-08-09T11:48:59.630Z,0.47
2022-08-09T11:53:02.972Z,0.28
2022-08-09T11:54:14.637Z,0.47
2022-08-09T11:56:54.841Z,0.55
2022-08-09T11:59:30.344Z,0.80
2022-08-09T12:02:17.205Z,0.73
2022-08-09T12:04:47.490Z,0.47
2022-08-09T12:07:17.309Z,0.50
2022-08-09T12:09:50.529Z,0.40
2022-08-09T12:12:20.473Z,0.60
2022-08-09T12:15:03.827Z,0.60
2022-08-09T12:17:42.169Z,0.40
2022-08-09T12:20:16.615Z,0.40
2022-08-09T12:22:47.911Z,0.40
2022-08-09T12:25:17.595Z,0.50
2022-08-09T12:29:14.401Z,0.40
2022-08-09T12:30:58.911Z,0.55
2022-08-09T12:33:26.414Z,0.45
2022-08-09T12:36:27.777Z,0.60
2022-08-09T12:38:58.619Z,0.60
2022-08-09T12:41:29.234Z,0.68
2022-08-09T12:44:05.611Z,0.40
2022-08-09T12:46:34.552Z,0.45
2022-08-09T12:49:03.645Z,0.55
2022-08-09T12:51:30.455Z,0.70
2022-08-09T12:54:16.850Z,0.90
2022-08-09T12:56:48.762Z,0.85
2022-08-09T12:59:21.907Z,0.70
2022-08-09T13:01:58.382Z,1.13
2022-08-09T13:04:36.538Z,1.30
2022-08-09T13:07:16.692Z,1.13
2022-08-09T13:09:55.238Z,1.30
2022-08-09T13:12:27.991Z,1.10
2022-08-09T13:15:02.855Z,1.40
2022-08-09T13:18:02.465Z,0.95
2022-08-09T13:20:23.567Z,1.02
2022-08-09T13:23:01.604Z,1.02
2022-08-09T13:25:52.858Z,1.02
2022-08-09T13:28:33.680Z,1.30
2022-08-09T13:32:12.259Z,1.30
2022-08-09T13:33:55.402Z,1.13
2022-08-09T13:36:37.585Z,1.08
2022-08-09T13:41:20.787Z,1.10
2022-08-09T13:42:05.490Z,1.17
2022-08-09T13:44:39.415Z,0.80
2022-08-09T13:47:25.324Z,1.10
2022-08-09T13:50:01.289Z,0.90
2022-08-09T13:52:28.818Z,1.23
2022-08-09T13:55:00.115Z,1.27
2022-08-09T13:57:53.037Z,0.90
2022-08-09T14:00:28.574Z,0.90
2022-08-09T14:03:03.603Z,1.45
2022-08-09T14:06:01.413Z,1.08
2022-08-09T14:08:32.458Z,1.40
2022-08-09T14:10:59.398Z,0.90
2022-08-09T14:14:16.305Z,1.25
2022-08-09T14:16:15.338Z,1.38
2022-08-09T14:18:45.853Z,0.80
2022-08-09T14:21:18.659Z,1.20
2022-08-09T14:23:55.232Z,0.80
2022-08-09T14:26:32.692Z,0.52
2022-08-09T14:29:07.824Z,0.77
2022-08-09T14:31:53.907Z,0.90
2022-08-09T14:34:31.537Z,0.90
2022-08-09T14:37:06.493Z,0.88
2022-08-09T14:39:46.438Z,0.60
2022-08-09T14:42:30.776Z,0.70
2022-08-09T14:45:00.237Z,0.90
2022-08-09T14:47:45.414Z,0.70
2022-08-09T14:50:15.940Z,1.00
2022-08-09T14:52:43.059Z,0.80
2022-08-09T14:55:09.847Z,0.70
2022-08-09T14:57:43.033Z,0.93
2022-08-09T15:02:36.630Z,0.90
2022-08-09T15:05:07.065Z,0.70
2022-08-09T15:07:35.117Z,1.13
2022-08-09T15:10:07.904Z,0.90
2022-08-09T15:12:40.699Z,0.80
2022-08-09T15:15:13.361Z,0.95
2022-08-09T15:17:42.061Z,0.93
2022-08-09T15:20:20.331Z,0.60
2022-08-09T15:23:03.083Z,1.10
2022-08-09T15:25:45.368Z,0.85
2022-08-09T15:28:26.165Z,0.75
2022-08-09T15:31:00.458Z,0.82
2022-08-09T15:34:17.310Z,0.90
2022-08-09T15:36:28.064Z,0.88
2022-08-09T15:38:56.576Z,0.50
2022-08-09T15:41:23.212Z,0.82
2022-08-09T15:43:58.415Z,0.63
2022-08-09T15:46:32.883Z,0.82
2022-08-09T15:49:21.014Z,1.00
2022-08-09T15:52:02.703Z,0.80
2022-08-09T15:54:46.134Z,0.70
2022-08-09T15:57:19.325Z,0.50
2022-08-09T16:00:01.268Z,0.90
2022-08-09T16:02:27.804Z,1.00
2022-08-09T16:04:54.498Z,0.85
2022-08-09T16:07:21.019Z,0.80
2022-08-09T16:09:57.719Z,0.68
2022-08-09T16:12:32.667Z,0.85
2022-08-09T16:14:59.487Z,0.75
2022-08-09T16:17:28.652Z,0.80
2022-08-09T16:20:04.549Z,1.10
2022-08-09T16:22:42.044Z,0.55
2022-08-09T16:25:10.135Z,0.77
2022-08-09T16:27:37.347Z,0.47
2022-08-09T16:30:08.351Z,0.95
2022-08-09T16:33:00.369Z,0.52
2022-08-09T16:35:55.666Z,0.73
2022-08-09T16:38:14.758Z,0.60
2022-08-09T16:40:44.722Z,0.55
2022-08-09T16:43:12.441Z,0.60
2022-08-09T16:45:43.940Z,0.60
2022-08-09T16:48:39.387Z,0.90
2022-08-09T16:50:59.083Z,1.00
2022-08-09T16:53:26.854Z,0.90
2022-08-09T16:56:04.831Z,1.13
2022-08-09T16:58:36.120Z,1.00
2022-08-09T17:01:04.059Z,0.75
2022-08-09T17:03:30.678Z,1.40
2022-08-09T17:06:06.930Z,0.77
2022-08-09T17:08:45.941Z,0.82
2022-08-09T17:11:24.576Z,0.70
2022-08-09T17:14:01.869Z,0.65
2022-08-09T17:16:28.774Z,0.70
2022-08-09T17:18:55.346Z,0.93
2022-08-09T17:21:21.910Z,0.88
2022-08-09T17:24:27.572Z,0.55
2022-08-09T17:26:38.427Z,0.93
2022-08-09T17:29:05.179Z,0.88
2022-08-09T17:31:38.787Z,0.70
2022-08-09T17:34:06.773Z,1.00
2022-08-09T17:36:53.922Z,0.85
2022-08-09T17:39:24.881Z,0.70
2022-08-09T17:41:51.799Z,0.50
2022-08-09T17:44:42.140Z,0.70
2022-08-09T17:47:06.056Z,0.63
2022-08-09T17:49:54.151Z,0.90
2022-08-09T17:52:24.069Z,1.00
2022-08-09T17:54:51.319Z,1.20
2022-08-09T17:57:20.782Z,0.80
2022-08-09T18:00:07.653Z,1.00
2022-08-09T18:02:34.324Z,1.10
2022-08-09T18:05:00.923Z,0.77
2022-08-09T18:07:27.592Z,0.80
2022-08-09T18:10:04.511Z,1.10
2022-08-09T18:12:40.474Z,0.70
2022-08-09T18:15:18.408Z,1.00
2022-08-09T18:18:01.802Z,1.02
2022-08-09T18:20:59.747Z,0.95
2022-08-09T18:24:10.522Z,0.95
2022-08-09T18:26:03.621Z,0.90
2022-08-09T18:30:41.930Z,0.73
2022-08-09T18:31:24.730Z,0.95
2022-08-09T18:33:58.617Z,0.88
2022-08-09T18:36:31.938Z,0.80
2022-08-09T18:39:02.852Z,0.95
2022-08-09T18:41:34.277Z,0.88
2022-08-09T18:44:03.200Z,0.80
2022-08-09T18:46:51.090Z,1.00
2022-08-09T18:49:16.943Z,0.73
2022-08-09T18:51:57.753Z,0.95
2022-08-09T18:54:28.505Z,1.08
2022-08-09T18:56:56.062Z,1.13
2022-08-09T18:59:23.865Z,1.10
2022-08-09T19:01:54.144Z,1.00
2022-08-09T19:04:34.643Z,0.65
2022-08-09T19:07:01.836Z,1.42
2022-08-09T19:09:34.084Z,0.95
2022-08-09T19:12:20.829Z,0.90
2022-08-09T19:14:49.401Z,0.82
2022-08-09T19:17:18.674Z,0.88
2022-08-09T19:19:48.347Z,0.93
2022-08-09T19:22:16.866Z,1.25
2022-08-09T19:25:11.712Z,0.85
2022-08-09T19:27:31.521Z,1.10
2022-08-09T19:30:22.028Z,1.20
2022-08-09T19:32:44.587Z,1.20
2022-08-09T19:35:11.171Z,1.00
2022-08-09T19:37:54.101Z,1.00
2022-08-09T19:40:21.589Z,1.42
2022-08-09T19:42:49.752Z,1.27
2022-08-09T19:45:16.576Z,0.90
2022-08-09T19:47:44.475Z,0.85
2022-08-09T19:50:51.138Z,0.98
2022-08-09T19:52:59.320Z,1.20
2022-08-09T19:55:52.871Z,1.17
2022-08-09T19:58:16.593Z,1.20
2022-08-09T20:00:45.361Z,1.10
2022-08-09T20:04:23.611Z,1.35
2022-08-09T20:05:58.975Z,1.05
2022-08-09T20:08:34.986Z,1.02
2022-08-09T20:11:04.492Z,1.08
2022-08-09T20:13:32.195Z,1.25
2022-08-09T20:16:36.999Z,1.25
2022-08-09T20:19:03.650Z,1.00
2022-08-09T20:21:40.820Z,0.93
2022-08-09T20:24:31.742Z,1.42
2022-08-09T20:27:01.307Z,1.33
2022-08-09T20:29:32.661Z,0.93
2022-08-09T20:32:31.395Z,1.00
2022-08-09T20:34:52.168Z,1.20
2022-08-09T20:37:21.318Z,1.52
2022-08-09T20:40:16.587Z,1.17
2022-08-09T20:42:37.655Z,1.10
2022-08-09T20:45:56.825Z,1.10
2022-08-09T20:47:51.256Z,0.90
2022-08-09T20:50:47.950Z,1.15
2022-08-09T20:53:04.379Z,1.10
2022-08-09T20:55:47.318Z,1.27
2022-08-09T20:58:28.292Z,1.00
2022-08-09T21:01:13.982Z,1.10
2022-08-09T21:05:49.639Z,1.10
2022-08-09T21:06:33.751Z,1.45
2022-08-09T21:09:01.810Z,1.05
2022-08-09T21:14:16.803Z,0.95
2022-08-09T21:16:44.051Z,1.00
2022-08-09T21:20:19.346Z,1.10
2022-08-09T21:21:59.225Z,0.90
2022-08-09T21:24:29.016Z,1.08
2022-08-09T21:27:10.443Z,1.38
2022-08-09T21:29:49.582Z,1.30
2022-08-09T21:32:18.960Z,1.20
2022-08-09T21:34:49.200Z,1.33
2022-08-09T21:37:17.998Z,1.25
2022-08-09T21:39:45.086Z,1.10
2022-08-09T21:42:16.903Z,1.27
2022-08-09T21:44:43.666Z,1.40
2022-08-09T21:47:11.176Z,1.00
2022-08-09T21:52:16.526Z,1.30
2022-08-09T21:54:46.252Z,1.20
2022-08-09T21:57:25.458Z,1.30
2022-08-09T22:00:05.806Z,0.95
2022-08-09T22:02:36.682Z,1.27
2022-08-09T22:05:16.863Z,1.20
2022-08-09T22:07:52.288Z,1.40
2022-08-09T22:10:23.220Z,1.10
2022-08-09T22:12:51.144Z,1.13
2022-08-09T22:15:20.521Z,1.10
2022-08-09T22:17:47.421Z,1.25
2022-08-09T22:20:16.969Z,0.90
2022-08-09T22:22:53.838Z,1.20
2022-08-09T22:26:06.491Z,1.20
2022-08-09T22:28:07.432Z,1.48
2022-08-09T22:30:34.117Z,1.25
2022-08-09T22:33:00.671Z,1.38
2022-08-09T22:36:02.020Z,1.05
2022-08-09T22:38:15.312Z,1.08
2022-08-09T22:40:49.126Z,1.25
2022-08-09T22:44:00.838Z,1.42
2022-08-09T22:48:13.131Z,1.42
2022-08-09T22:49:01.881Z,1.30
2022-08-09T22:51:38.319Z,1.10
2022-08-09T22:54:08.108Z,1.13
2022-08-09T22:56:37.971Z,1.00
2022-08-09T22:59:56.858Z,1.00
2022-08-09T23:01:55.102Z,0.80
2022-08-09T23:04:21.837Z,1.00
2022-08-09T23:07:13.961Z,1.10
2022-08-09T23:09:42.758Z,1.20
2022-08-09T23:12:09.293Z,1.00
2022-08-09T23:14:41.911Z,1.00
2022-08-09T23:17:09.324Z,1.10
2022-08-09T23:20:07.478Z,1.00
2022-08-09T23:22:22.479Z,1.40
2022-08-09T23:24:49.120Z,0.82
2022-08-09T23:27:16.056Z,1.17
2022-08-09T23:29:43.069Z,0.93
2022-08-09T23:32:09.708Z,0.60
2022-08-09T23:34:36.847Z,1.00
2022-08-09T23:37:04.195Z,0.82
2022-08-09T23:39:30.750Z,1.20
2022-08-09T23:41:57.372Z,0.75
2022-08-09T23:44:23.911Z,0.80
2022-08-09T23:46:55.868Z,1.20
2022-08-09T23:49:25.070Z,1.20
2022-08-09T23:51:52.158Z,0.88
2022-08-09T23:54:18.870Z,1.00
2022-08-09T23:56:53.647Z,0.85
2022-08-09T23:59:22.107Z,1.50
